Time;durP1;ratioP1;P1;durP2;ratioP2;P2;SDS_P1;SDS_P2;PMS_P1;PMS_P2;Temp;Humidity;BMP_temperature;BMP_pressure;BME280_temperature;BME280_humidity;BME280_pressure;Samples;Min_cycle;Max_cycle;Signal;HPM_P1;HPM_P2
2021/07/03 00:01:31;;;;;;;36.17;24.98;;;16.40;97.30;;;;;;5034139;28;20501;-62
2021/07/03 00:03:56;;;;;;;35.60;25.45;;;16.40;96.70;;;;;;5034680;28;20059;-63
2021/07/03 00:06:22;;;;;;;32.10;23.42;;;16.50;96.70;;;;;;5034497;28;20489;-61
2021/07/03 00:08:47;;;;;;;39.08;25.30;;;16.60;96.70;;;;;;5034502;28;20124;-62
2021/07/03 00:11:13;;;;;;;37.35;25.63;;;16.60;96.70;;;;;;5035086;28;20029;-61
2021/07/03 00:13:39;;;;;;;37.03;25.75;;;16.60;96.60;;;;;;5034540;28;20489;-63
2021/07/03 00:16:06;;;;;;;31.67;23.42;;;16.50;96.60;;;;;;5034310;28;20128;-62
2021/07/03 00:18:31;;;;;;;33.75;24.40;;;16.60;96.60;;;;;;5034335;28;20039;-62
2021/07/03 00:20:57;;;;;;;32.30;24.83;;;16.60;96.70;;;;;;5034455;28;20400;-62
2021/07/03 00:23:22;;;;;;;32.13;22.50;;;16.70;96.50;;;;;;5034274;28;20212;-61
2021/07/03 00:25:48;;;;;;;32.80;23.38;;;16.70;96.40;;;;;;5033891;28;20554;-60
2021/07/03 00:28:14;;;;;;;31.55;23.73;;;16.80;96.40;;;;;;5033778;28;20132;-62
2021/07/03 00:30:40;;;;;;;29.60;22.20;;;16.80;96.30;;;;;;5034347;28;20124;-61
2021/07/03 00:33:05;;;;;;;34.25;22.02;;;16.80;96.20;;;;;;5034254;28;20041;-61
2021/07/03 00:35:31;;;;;;;32.40;23.00;;;16.90;96.30;;;;;;5033876;28;20087;-61
2021/07/03 00:37:57;;;;;;;36.95;25.23;;;16.90;96.20;;;;;;5033673;28;20109;-62
2021/07/03 00:40:22;;;;;;;36.88;25.23;;;16.90;96.20;;;;;;5028626;28;20053;-61
2021/07/03 00:42:48;;;;;;;34.30;23.90;;;16.90;96.00;;;;;;5034074;28;20452;-62
2021/07/03 00:45:13;;;;;;;34.70;24.17;;;16.80;96.20;;;;;;5034021;28;20171;-61
2021/07/03 00:47:39;;;;;;;38.50;24.58;;;16.80;96.30;;;;;;5033470;28;20072;-61
2021/07/03 00:50:10;;;;;;;36.50;23.10;;;16.80;96.40;;;;;;5034270;28;20026;-62
2021/07/03 00:52:40;;;;;;;36.70;24.23;;;16.70;96.50;;;;;;5023593;28;20029;-62
2021/07/03 00:55:06;;;;;;;39.67;26.08;;;16.70;96.60;;;;;;5016002;28;20034;-61
2021/07/03 00:57:32;;;;;;;33.92;24.40;;;16.70;96.60;;;;;;5053089;28;20021;-62
2021/07/03 01:00:00;;;;;;;37.50;25.60;;;16.70;96.60;;;;;;5053975;28;20068;-61
2021/07/03 01:02:26;;;;;;;36.40;24.52;;;16.70;96.40;;;;;;5047108;28;20036;-62
2021/07/03 01:04:52;;;;;;;38.42;26.27;;;16.80;96.30;;;;;;5034024;28;20037;-61
2021/07/03 01:07:18;;;;;;;36.72;24.75;;;16.60;96.50;;;;;;5032907;28;20033;-61
2021/07/03 01:09:43;;;;;;;36.20;25.63;;;16.70;96.60;;;;;;5034001;28;20043;-61
2021/07/03 01:12:10;;;;;;;32.30;23.27;;;16.60;96.50;;;;;;5033227;28;20034;-61
2021/07/03 01:14:46;;;;;;;37.55;25.27;;;16.60;96.70;;;;;;5033788;28;20033;-61
2021/07/03 01:17:13;;;;;;;35.47;25.23;;;16.60;96.80;;;;;;5033221;28;20049;-62
2021/07/03 01:19:40;;;;;;;32.00;23.38;;;16.60;96.80;;;;;;5033398;28;20041;-61
2021/07/03 01:22:07;;;;;;;33.55;23.25;;;16.60;96.70;;;;;;5033114;28;20073;-61
2021/07/03 01:24:33;;;;;;;33.22;22.60;;;16.50;96.70;;;;;;5033180;28;20068;-62
2021/07/03 01:26:59;;;;;;;37.00;24.83;;;16.50;96.80;;;;;;5020039;28;20065;-60
2021/07/03 01:29:26;;;;;;;35.28;23.83;;;16.50;96.90;;;;;;5032752;28;20053;-61
2021/07/03 01:31:55;;;;;;;32.20;23.40;;;16.50;96.90;;;;;;5015539;28;20026;-61
2021/07/03 01:34:24;;;;;;;30.85;22.92;;;16.40;97.00;;;;;;5031918;28;20033;-61
2021/07/03 01:36:49;;;;;;;35.30;23.42;;;16.40;97.10;;;;;;5032855;28;20033;-62
2021/07/03 01:39:15;;;;;;;35.42;24.35;;;16.30;97.10;;;;;;5033776;28;20036;-62
2021/07/03 01:41:42;;;;;;;36.25;23.38;;;16.40;97.20;;;;;;5032605;28;20488;-62
2021/07/03 01:44:08;;;;;;;32.72;23.52;;;16.30;97.60;;;;;;5032836;28;20029;-62
2021/07/03 01:46:34;;;;;;;35.88;24.23;;;16.30;97.30;;;;;;5031687;28;20033;-62
2021/07/03 01:49:01;;;;;;;29.52;23.15;;;16.40;97.20;;;;;;5045286;28;20025;-61
2021/07/03 01:51:27;;;;;;;32.75;24.25;;;16.30;97.20;;;;;;5015297;28;20037;-61
2021/07/03 01:53:52;;;;;;;38.05;25.10;;;16.30;97.30;;;;;;5033549;28;20022;-60
2021/07/03 01:56:18;;;;;;;35.22;24.55;;;16.30;97.30;;;;;;5033989;28;20025;-61
2021/07/03 01:58:44;;;;;;;37.38;24.50;;;16.30;97.40;;;;;;5033139;28;20521;-62
2021/07/03 02:01:09;;;;;;;33.28;22.95;;;16.30;97.30;;;;;;5033784;28;20036;-61
2021/07/03 02:03:35;;;;;;;32.60;23.40;;;16.20;97.40;;;;;;5032776;28;20038;-61
2021/07/03 02:06:03;;;;;;;37.22;22.98;;;16.20;97.40;;;;;;5032887;28;20030;-62
2021/07/03 02:08:31;;;;;;;34.00;23.30;;;16.30;97.70;;;;;;5032840;28;20028;-63
2021/07/03 02:10:57;;;;;;;31.23;23.88;;;16.30;97.30;;;;;;5032685;28;20049;-61
2021/07/03 02:13:23;;;;;;;33.28;23.92;;;16.20;97.30;;;;;;5032827;28;20543;-60
2021/07/03 02:15:48;;;;;;;33.13;22.92;;;16.20;97.30;;;;;;5032193;28;20116;-61
2021/07/03 02:18:14;;;;;;;28.95;21.30;;;16.20;97.20;;;;;;5032647;28;20038;-61
2021/07/03 02:20:40;;;;;;;32.63;24.17;;;16.20;97.30;;;;;;5033027;28;20041;-62
2021/07/03 02:23:06;;;;;;;32.10;22.60;;;16.20;97.20;;;;;;5032807;28;20069;-61
2021/07/03 02:25:33;;;;;;;35.58;21.95;;;16.10;97.30;;;;;;5032553;28;20365;-61
2021/07/03 02:27:59;;;;;;;33.08;22.63;;;16.10;97.30;;;;;;5032604;28;20067;-61
2021/07/03 02:30:26;;;;;;;35.03;22.52;;;16.20;97.20;;;;;;5015106;28;20497;-62
2021/07/03 02:32:52;;;;;;;29.65;21.88;;;16.20;97.10;;;;;;5031106;28;20515;-61
2021/07/03 02:35:19;;;;;;;29.08;22.33;;;16.20;96.80;;;;;;5030939;28;20065;-62
2021/07/03 02:37:46;;;;;;;32.20;21.70;;;16.20;96.80;;;;;;5031841;28;20084;-62
2021/07/03 02:40:13;;;;;;;28.67;21.67;;;16.20;96.80;;;;;;5032069;28;20033;-61
2021/07/03 02:42:40;;;;;;;29.70;21.33;;;16.20;96.80;;;;;;5032568;28;20120;-61
2021/07/03 02:45:08;;;;;;;32.58;21.52;;;16.10;96.90;;;;;;5014514;28;20029;-62
2021/07/03 02:47:35;;;;;;;30.20;21.20;;;16.10;97.00;;;;;;5031680;28;20037;-63
2021/07/03 02:50:01;;;;;;;34.65;23.02;;;16.10;97.10;;;;;;5032016;28;20057;-60
2021/07/03 02:52:26;;;;;;;31.88;22.48;;;16.10;96.70;;;;;;5031790;28;20104;-62
2021/07/03 02:54:52;;;;;;;32.00;22.60;;;16.10;97.00;;;;;;5032257;28;20079;-60
2021/07/03 02:57:17;;;;;;;29.88;21.35;;;16.00;97.20;;;;;;5014305;28;20453;-61
2021/07/03 02:59:43;;;;;;;32.50;23.25;;;15.90;97.10;;;;;;5032055;28;20052;-61
2021/07/03 03:02:08;;;;;;;33.47;22.70;;;15.80;97.10;;;;;;5032592;28;20033;-61
2021/07/03 03:04:35;;;;;;;32.88;23.08;;;15.80;97.20;;;;;;5032153;28;20053;-61
2021/07/03 03:07:01;;;;;;;30.85;22.40;;;15.80;97.10;;;;;;5031916;28;20033;-62
2021/07/03 03:09:26;;;;;;;27.83;21.85;;;15.80;97.10;;;;;;5031774;28;20037;-63
2021/07/03 03:11:52;;;;;;;34.22;22.85;;;15.70;97.20;;;;;;5032058;28;20034;-61
2021/07/03 03:14:18;;;;;;;33.22;22.83;;;15.70;97.40;;;;;;5052357;28;20452;-61
2021/07/03 03:16:44;;;;;;;32.88;21.92;;;15.70;97.50;;;;;;5051674;28;20168;-62
2021/07/03 03:19:09;;;;;;;34.80;23.05;;;15.60;97.70;;;;;;5051583;28;20029;-61
2021/07/03 03:21:35;;;;;;;32.10;21.67;;;15.60;97.70;;;;;;5051759;28;20123;-60
2021/07/03 03:24:02;;;;;;;30.25;21.98;;;15.70;97.70;;;;;;5052452;28;20068;-61
2021/07/03 03:26:27;;;;;;;33.50;22.55;;;15.80;97.40;;;;;;5042899;28;20025;-62
2021/07/03 03:28:53;;;;;;;31.25;21.90;;;15.90;97.10;;;;;;5014352;28;20041;-62
2021/07/03 03:31:18;;;;;;;29.92;21.52;;;15.80;96.90;;;;;;5031578;28;20029;-60
2021/07/03 03:33:44;;;;;;;30.45;21.17;;;15.80;97.10;;;;;;5031670;28;20532;-62
2021/07/03 03:36:09;;;;;;;32.30;21.90;;;15.80;97.00;;;;;;5031575;28;20045;-62
2021/07/03 03:38:35;;;;;;;32.95;22.13;;;15.90;96.90;;;;;;5014908;28;20412;-61
2021/07/03 03:41:00;;;;;;;33.80;22.00;;;15.80;97.00;;;;;;5031556;28;20053;-62
2021/07/03 03:43:26;;;;;;;31.02;21.50;;;15.70;97.00;;;;;;5051822;28;20095;-62
2021/07/03 03:45:51;;;;;;;31.88;21.65;;;15.80;96.80;;;;;;5033643;28;20047;-63
2021/07/03 03:48:17;;;;;;;29.90;20.90;;;15.80;96.70;;;;;;5031704;28;20441;-60
2021/07/03 03:50:43;;;;;;;31.38;21.15;;;15.80;97.10;;;;;;5031460;28;20037;-62
2021/07/03 03:53:08;;;;;;;31.77;22.38;;;15.70;97.10;;;;;;5031897;28;20096;-61
2021/07/03 03:55:34;;;;;;;29.65;20.38;;;15.60;97.10;;;;;;5030791;28;20072;-62
2021/07/03 03:58:00;;;;;;;30.02;21.38;;;15.60;97.10;;;;;;5015927;28;20459;-63
2021/07/03 04:00:26;;;;;;;32.72;20.90;;;15.60;97.10;;;;;;5035403;28;20026;-62
2021/07/03 04:02:52;;;;;;;31.58;21.58;;;15.50;97.30;;;;;;5034913;28;20033;-62
2021/07/03 04:05:17;;;;;;;30.33;21.27;;;15.40;97.30;;;;;;5034992;28;20037;-61
2021/07/03 04:07:43;;;;;;;30.92;22.17;;;15.50;97.20;;;;;;5034848;28;20037;-62
2021/07/03 04:10:12;;;;;;;29.15;21.13;;;15.50;97.00;;;;;;5035860;28;20033;-62
2021/07/03 04:12:37;;;;;;;29.42;21.02;;;15.50;97.10;;;;;;5035143;28;20396;-62
2021/07/03 04:15:04;;;;;;;30.20;21.00;;;15.60;97.30;;;;;;5035195;28;20036;-62
2021/07/03 04:17:30;;;;;;;28.98;20.27;;;15.70;96.80;;;;;;5034680;28;20025;-61
2021/07/03 04:19:56;;;;;;;30.00;20.65;;;15.80;96.60;;;;;;5035110;28;20096;-63
2021/07/03 04:22:22;;;;;;;28.85;20.13;;;15.80;96.70;;;;;;5035212;28;20029;-62
2021/07/03 04:24:47;;;;;;;28.70;19.90;;;15.80;96.60;;;;;;5035243;28;20560;-62
2021/07/03 04:27:13;;;;;;;34.15;21.33;;;15.90;96.60;;;;;;5021693;28;20104;-62
2021/07/03 04:29:39;;;;;;;30.98;22.17;;;15.80;96.40;;;;;;5034679;28;20037;-62
2021/07/03 04:32:05;;;;;;;33.45;21.58;;;15.80;96.30;;;;;;5034605;28;20120;-61
2021/07/03 04:34:31;;;;;;;32.53;22.83;;;15.80;96.30;;;;;;5016732;28;20084;-63
2021/07/03 04:36:58;;;;;;;30.85;21.13;;;15.70;96.40;;;;;;5033875;28;20124;-62
2021/07/03 04:39:25;;;;;;;31.77;22.23;;;15.50;96.80;;;;;;5034974;28;20038;-61
2021/07/03 04:41:51;;;;;;;29.42;20.95;;;15.50;96.40;;;;;;5000757;28;20025;-62
2021/07/03 04:44:17;;;;;;;33.67;21.63;;;15.40;96.80;;;;;;5034256;28;20449;-62
2021/07/03 04:46:44;;;;;;;33.22;20.73;;;15.40;96.90;;;;;;5016321;28;20021;-62
2021/07/03 04:49:10;;;;;;;29.85;21.10;;;15.40;96.90;;;;;;5034021;28;20041;-61
2021/07/03 04:51:36;;;;;;;31.70;21.00;;;15.40;97.10;;;;;;5034806;28;20109;-62
2021/07/03 04:54:02;;;;;;;33.00;21.00;;;15.60;96.80;;;;;;5034860;28;20548;-62
2021/07/03 04:56:27;;;;;;;26.75;19.77;;;15.70;96.50;;;;;;5033988;28;20037;-62
2021/07/03 04:58:54;;;;;;;30.52;21.88;;;15.70;96.70;;;;;;5034085;28;20400;-61
2021/07/03 05:01:19;;;;;;;29.13;20.42;;;15.70;96.40;;;;;;5016089;28;20033;-62
2021/07/03 05:03:45;;;;;;;29.98;20.90;;;15.70;96.70;;;;;;5033874;28;20040;-62
2021/07/03 05:06:11;;;;;;;30.13;20.45;;;15.70;96.40;;;;;;5033237;28;20056;-61
2021/07/03 05:08:36;;;;;;;29.05;21.55;;;15.90;96.30;;;;;;5033193;28;20040;-62
2021/07/03 05:11:02;;;;;;;28.52;20.98;;;15.80;96.60;;;;;;5034311;28;20033;-64
2021/07/03 05:13:28;;;;;;;28.58;19.77;;;15.80;96.70;;;;;;5016145;28;20117;-64
2021/07/03 05:15:54;;;;;;;28.23;19.70;;;15.90;96.60;;;;;;5033566;28;20120;-62
2021/07/03 05:18:19;;;;;;;32.35;21.92;;;15.90;96.50;;;;;;5016004;28;20029;-62
2021/07/03 05:20:45;;;;;;;29.35;19.85;;;15.90;96.70;;;;;;5033681;28;20037;-62
2021/07/03 05:23:11;;;;;;;31.58;21.60;;;15.90;96.70;;;;;;5033664;28;20045;-61
2021/07/03 05:25:40;;;;;;;32.67;21.13;;;16.00;96.80;;;;;;5033215;28;20021;-62
2021/07/03 05:28:05;;;;;;;24.35;19.02;;;16.00;96.70;;;;;;5033478;28;20040;-62
2021/07/03 05:30:31;;;;;;;31.50;21.33;;;16.10;96.70;;;;;;5033246;28;20112;-62
2021/07/03 05:32:57;;;;;;;30.60;21.65;;;16.20;96.50;;;;;;5015552;28;20121;-61
2021/07/03 05:35:22;;;;;;;30.10;21.00;;;16.30;96.30;;;;;;5015546;28;20453;-61
2021/07/03 05:37:48;;;;;;;29.88;20.00;;;16.30;96.40;;;;;;5034199;28;20079;-62
2021/07/03 05:40:15;;;;;;;27.73;20.05;;;16.30;96.60;;;;;;5033620;28;20048;-62
2021/07/03 05:42:41;;;;;;;33.90;20.17;;;16.40;96.40;;;;;;5033692;28;20116;-62
2021/07/03 05:45:07;;;;;;;31.50;21.33;;;16.60;96.10;;;;;;5033692;28;20500;-62
2021/07/03 05:47:33;;;;;;;30.13;20.95;;;16.70;95.90;;;;;;5033122;28;20501;-62
2021/07/03 05:49:59;;;;;;;24.27;19.38;;;16.80;96.00;;;;;;5015878;28;20036;-61
2021/07/03 05:52:24;;;;;;;28.60;19.88;;;16.80;96.00;;;;;;5033164;28;20052;-62
2021/07/03 05:54:50;;;;;;;32.95;20.10;;;16.60;96.40;;;;;;5033180;28;20068;-61
2021/07/03 05:57:16;;;;;;;27.77;19.88;;;16.70;96.30;;;;;;5033060;28;20141;-62
2021/07/03 05:59:41;;;;;;;25.10;18.38;;;16.90;95.90;;;;;;5033733;28;20400;-62
2021/07/03 06:02:08;;;;;;;26.30;19.77;;;17.10;95.80;;;;;;5033611;28;20038;-62
2021/07/03 06:04:34;;;;;;;25.98;18.58;;;17.20;95.40;;;;;;5033924;28;20041;-63
2021/07/03 06:07:00;;;;;;;26.95;20.45;;;17.10;95.80;;;;;;5032579;28;20037;-61
2021/07/03 06:09:26;;;;;;;26.60;19.63;;;17.10;95.30;;;;;;5015102;28;20508;-62
2021/07/03 06:11:51;;;;;;;23.67;18.35;;;17.10;95.20;;;;;;5015692;28;20501;-62
2021/07/03 06:14:17;;;;;;;21.95;18.73;;;17.20;95.10;;;;;;5032751;28;20035;-62
2021/07/03 06:16:43;;;;;;;22.38;18.08;;;17.30;94.90;;;;;;5031513;28;20038;-61
2021/07/03 06:19:09;;;;;;;27.25;20.38;;;17.50;94.50;;;;;;5032130;28;20029;-62
2021/07/03 06:21:35;;;;;;;23.15;18.35;;;17.60;94.40;;;;;;5032671;28;20080;-62
2021/07/03 06:24:00;;;;;;;22.67;18.15;;;17.50;94.50;;;;;;5032618;28;20030;-62
2021/07/03 06:26:26;;;;;;;24.45;18.85;;;17.40;94.80;;;;;;5007368;28;20037;-61
2021/07/03 06:28:52;;;;;;;33.55;18.75;;;17.40;94.70;;;;;;5031545;28;20037;-62
2021/07/03 06:31:18;;;;;;;22.92;18.65;;;17.60;94.50;;;;;;5032566;28;20509;-61
2021/07/03 06:33:44;;;;;;;21.42;18.77;;;17.90;93.90;;;;;;5029460;28;20037;-63
2021/07/03 06:36:10;;;;;;;22.65;18.90;;;18.00;93.80;;;;;;5024218;28;20462;-61
2021/07/03 06:38:35;;;;;;;22.80;18.15;;;18.20;93.20;;;;;;5036897;28;20067;-60
2021/07/03 06:41:01;;;;;;;22.60;18.13;;;18.30;92.80;;;;;;5032612;28;20037;-61
2021/07/03 06:43:26;;;;;;;28.25;18.83;;;18.40;92.60;;;;;;5032244;28;20021;-62
2021/07/03 06:45:52;;;;;;;25.15;19.17;;;18.50;92.40;;;;;;5011487;28;20041;-61
2021/07/03 06:48:18;;;;;;;20.83;17.67;;;18.50;92.50;;;;;;5032438;28;20040;-60
2021/07/03 06:50:43;;;;;;;18.92;16.80;;;18.60;92.40;;;;;;5032245;28;20018;-61
2021/07/03 06:53:09;;;;;;;21.98;18.23;;;18.70;92.20;;;;;;5031954;28;20037;-61
2021/07/03 06:55:34;;;;;;;21.08;18.40;;;18.80;91.70;;;;;;5011389;28;20056;-61
2021/07/03 06:58:00;;;;;;;21.50;18.23;;;18.90;91.20;;;;;;5031422;28;20045;-60
2021/07/03 07:00:25;;;;;;;27.98;22.92;;;18.90;91.00;;;;;;5032179;28;20044;-62
2021/07/03 07:02:51;;;;;;;21.02;18.08;;;18.90;91.10;;;;;;5025872;28;20044;-61
2021/07/03 07:05:17;;;;;;;20.75;17.30;;;19.00;91.20;;;;;;5031421;28;20034;-60
2021/07/03 07:07:42;;;;;;;22.75;18.35;;;19.00;91.40;;;;;;4996555;28;20053;-60
2021/07/03 07:10:08;;;;;;;21.02;18.80;;;19.00;91.10;;;;;;5030626;28;20030;-61
2021/07/03 07:12:34;;;;;;;20.02;16.98;;;19.20;90.80;;;;;;5031469;28;20034;-60
2021/07/03 07:15:00;;;;;;;17.98;16.13;;;19.30;90.80;;;;;;5013309;28;20032;-61
2021/07/03 07:17:25;;;;;;;20.40;16.90;;;19.40;90.60;;;;;;5028737;28;20022;-62
2021/07/03 07:19:51;;;;;;;19.85;15.95;;;19.60;89.80;;;;;;5031682;28;20678;-61
2021/07/03 07:22:17;;;;;;;20.58;17.98;;;19.60;90.10;;;;;;5031461;28;20405;-61
2021/07/03 07:24:42;;;;;;;16.77;14.90;;;19.70;89.50;;;;;;5031247;28;20034;-61
2021/07/03 07:27:08;;;;;;;17.17;15.23;;;19.70;89.40;;;;;;5030827;28;20045;-62
2021/07/03 07:29:34;;;;;;;18.30;15.77;;;19.70;89.30;;;;;;5031553;28;20034;-61
2021/07/03 07:32:00;;;;;;;19.08;17.17;;;19.80;88.80;;;;;;5031621;28;20092;-61
2021/07/03 07:34:26;;;;;;;20.15;18.02;;;19.90;88.60;;;;;;5035545;28;20014;-60
2021/07/03 07:36:51;;;;;;;17.83;14.75;;;19.70;88.90;;;;;;5025150;28;20061;-61
2021/07/03 07:39:17;;;;;;;19.17;16.45;;;19.80;88.70;;;;;;5034425;28;20022;-61
2021/07/03 07:41:43;;;;;;;18.60;15.73;;;19.90;88.80;;;;;;5033308;28;20033;-61
2021/07/03 07:44:09;;;;;;;18.45;15.98;;;19.90;88.80;;;;;;5017899;28;20052;-62
2021/07/03 07:46:34;;;;;;;20.02;16.40;;;20.00;87.50;;;;;;5017342;28;20660;-60
2021/07/03 07:49:00;;;;;;;16.40;14.68;;;20.00;87.80;;;;;;5035750;28;20030;-63
2021/07/03 07:51:26;;;;;;;18.55;15.00;;;20.20;87.70;;;;;;5035473;28;20025;-61
2021/07/03 07:53:51;;;;;;;15.95;13.65;;;20.30;87.30;;;;;;5035491;28;20392;-62
2021/07/03 07:56:18;;;;;;;18.65;15.25;;;20.50;86.00;;;;;;5035355;28;20037;-63
2021/07/03 07:58:45;;;;;;;11.88;10.73;;;20.40;86.50;;;;;;5035173;28;20025;-61
2021/07/03 08:01:13;;;;;;;13.25;11.85;;;20.50;85.60;;;;;;5035033;28;20100;-62
2021/07/03 08:03:39;;;;;;;13.82;11.98;;;20.50;84.50;;;;;;5035214;28;20549;-61
2021/07/03 08:06:05;;;;;;;12.60;11.30;;;20.30;84.20;;;;;;5027649;28;20050;-62
2021/07/03 08:08:30;;;;;;;13.18;11.88;;;20.40;84.40;;;;;;5016570;28;20025;-62
2021/07/03 08:10:56;;;;;;;12.63;11.13;;;20.40;85.20;;;;;;5014030;28;20370;-61
2021/07/03 08:13:22;;;;;;;12.55;11.13;;;20.70;84.00;;;;;;5014300;28;20088;-64
2021/07/03 08:15:49;;;;;;;10.43;8.63;;;20.90;83.10;;;;;;4997012;28;20048;-61
2021/07/03 08:18:15;;;;;;;9.63;8.65;;;21.10;81.30;;;;;;5018643;28;20032;-64
2021/07/03 08:20:41;;;;;;;11.93;10.63;;;21.30;80.40;;;;;;5017023;28;20038;-61
2021/07/03 08:23:07;;;;;;;10.95;9.90;;;21.40;80.50;;;;;;5016993;28;20044;-63
2021/07/03 08:25:34;;;;;;;10.48;9.45;;;21.40;81.60;;;;;;5022377;28;20036;-66
2021/07/03 08:28:00;;;;;;;10.82;9.52;;;21.40;81.80;;;;;;5002156;28;20041;-62
2021/07/03 08:30:28;;;;;;;11.68;10.07;;;21.50;81.00;;;;;;5017369;28;20038;-62
2021/07/03 08:32:54;;;;;;;11.75;10.55;;;21.40;81.10;;;;;;5017774;28;20642;-62
2021/07/03 08:35:20;;;;;;;12.52;11.20;;;21.00;81.60;;;;;;5035227;28;20560;-60
2021/07/03 08:37:47;;;;;;;11.43;10.32;;;20.80;82.90;;;;;;5020509;28;20037;-62
2021/07/03 08:40:14;;;;;;;13.23;11.25;;;20.90;83.10;;;;;;5034495;28;20033;-62
2021/07/03 08:42:40;;;;;;;12.88;11.18;;;21.00;82.60;;;;;;5016968;28;20030;-63
2021/07/03 08:45:07;;;;;;;13.68;11.88;;;21.20;81.30;;;;;;5015575;28;20502;-62
2021/07/03 08:47:33;;;;;;;12.75;10.35;;;21.20;81.80;;;;;;5032180;28;20048;-64
2021/07/03 08:50:00;;;;;;;12.27;11.02;;;21.50;80.90;;;;;;5033978;28;20451;-60
2021/07/03 08:52:27;;;;;;;11.88;10.65;;;21.80;80.00;;;;;;4999353;28;20063;-63
2021/07/03 08:55:02;;;;;;;9.68;8.68;;;21.90;79.20;;;;;;5016836;28;20033;-61
2021/07/03 08:57:28;;;;;;;9.02;8.18;;;21.60;79.20;;;;;;5049204;28;20116;-61
2021/07/03 08:59:58;;;;;;;10.13;8.98;;;21.30;80.60;;;;;;5034682;28;20025;-63
2021/07/03 09:02:34;;;;;;;9.48;8.45;;;21.50;79.90;;;;;;5033577;28;20362;-62
2021/07/03 09:05:00;;;;;;;9.57;8.57;;;21.60;79.20;;;;;;5033463;28;20025;-62
2021/07/03 09:07:33;;;;;;;10.15;9.10;;;21.90;78.50;;;;;;5033524;28;20025;-62
2021/07/03 09:09:58;;;;;;;10.18;8.77;;;22.20;78.50;;;;;;5016420;28;20030;-62
2021/07/03 09:12:28;;;;;;;10.15;9.15;;;22.40;77.90;;;;;;5033901;28;20026;-62
2021/07/03 09:14:54;;;;;;;11.30;9.18;;;22.40;77.50;;;;;;5016406;28;20035;-63
2021/07/03 09:17:19;;;;;;;10.60;9.50;;;22.40;77.90;;;;;;5015813;28;20116;-63
2021/07/03 09:19:52;;;;;;;12.85;8.90;;;22.10;78.20;;;;;;5032804;28;20041;-61
2021/07/03 09:22:19;;;;;;;10.35;9.13;;;21.70;78.60;;;;;;5033623;28;20072;-63
2021/07/03 09:24:44;;;;;;;10.07;9.07;;;21.60;79.20;;;;;;5034125;28;20033;-62
2021/07/03 09:27:12;;;;;;;8.85;7.95;;;21.60;79.00;;;;;;5033076;28;20026;-62
2021/07/03 09:29:49;;;;;;;10.88;8.73;;;21.60;79.50;;;;;;5033000;28;20044;-62
2021/07/03 09:32:15;;;;;;;11.40;8.88;;;21.90;78.40;;;;;;5033372;28;20393;-62
2021/07/03 09:34:42;;;;;;;11.65;8.60;;;21.90;78.50;;;;;;5033591;28;20045;-62
2021/07/03 09:37:07;;;;;;;9.52;8.52;;;22.00;79.00;;;;;;5033376;28;20412;-63
2021/07/03 09:39:33;;;;;;;9.27;8.10;;;22.00;78.80;;;;;;5016881;28;20038;-62
2021/07/03 09:41:59;;;;;;;8.55;7.63;;;22.10;77.10;;;;;;5033666;28;20129;-62
2021/07/03 09:44:25;;;;;;;10.20;8.73;;;22.20;77.10;;;;;;5033114;28;20433;-62
2021/07/03 09:46:53;;;;;;;8.93;8.02;;;22.30;75.50;;;;;;5033054;28;20073;-63
2021/07/03 09:49:30;;;;;;;9.88;8.40;;;22.60;74.80;;;;;;5033374;28;20497;-62
2021/07/03 09:51:59;;;;;;;9.50;8.60;;;22.70;74.70;;;;;;5033454;28;20704;-63
2021/07/03 09:54:27;;;;;;;11.13;8.48;;;22.30;75.60;;;;;;5032551;28;20029;-61
2021/07/03 09:56:59;;;;;;;14.50;9.50;;;22.10;77.10;;;;;;5014911;28;20034;-61
2021/07/03 09:59:35;;;;;;;10.45;9.38;;;22.00;77.40;;;;;;5032731;28;20029;-61
2021/07/03 10:02:03;;;;;;;10.80;9.70;;;21.90;78.50;;;;;;5014986;28;20033;-62
2021/07/03 10:04:28;;;;;;;11.35;9.07;;;21.90;77.90;;;;;;5033334;28;20493;-60
2021/07/03 10:07:41;;;;;;;9.90;8.98;;;22.30;76.00;;;;;;5014436;28;20040;-62
2021/07/03 10:10:11;;;;;;;9.93;8.70;;;22.60;75.10;;;;;;4933577;29;20032;-63
2021/07/03 10:12:42;;;;;;;13.52;8.90;;;22.30;74.30;;;;;;4933710;29;20039;-62
2021/07/03 10:15:09;;;;;;;11.55;9.40;;;22.30;75.80;;;;;;4991903;28;20041;-62
2021/07/03 10:17:36;;;;;;;8.65;7.75;;;22.70;74.40;;;;;;5014824;28;20029;-61
2021/07/03 10:20:07;;;;;;;9.73;7.40;;;22.70;73.40;;;;;;5032639;28;20034;-62
2021/07/03 10:22:35;;;;;;;9.43;8.52;;;22.70;73.50;;;;;;5032779;28;20493;-62
2021/07/03 10:25:10;;;;;;;8.57;7.65;;;22.60;74.10;;;;;;5033127;28;20048;-62
2021/07/03 10:27:36;;;;;;;8.93;7.47;;;22.40;72.40;;;;;;5032099;28;20030;-66
2021/07/03 10:30:06;;;;;;;7.70;7.00;;;22.40;71.50;;;;;;5033469;28;20108;-61
2021/07/03 10:32:34;;;;;;;8.57;7.40;;;22.60;71.30;;;;;;5014722;28;20417;-62
2021/07/03 10:35:19;;;;;;;8.55;7.47;;;22.80;72.20;;;;;;5032344;28;20088;-61
2021/07/03 10:37:45;;;;;;;8.35;6.78;;;22.80;70.00;;;;;;5032445;28;20583;-62
2021/07/03 10:40:19;;;;;;;8.27;7.47;;;23.00;70.00;;;;;;5032898;28;20042;-62
2021/07/03 10:42:45;;;;;;;8.05;7.07;;;22.90;69.80;;;;;;5052077;28;20132;-62
2021/07/03 10:45:14;;;;;;;8.02;7.20;;;23.00;70.30;;;;;;5034589;28;20608;-62
2021/07/03 10:47:40;;;;;;;8.52;6.65;;;23.10;70.40;;;;;;5051940;28;20041;-62
2021/07/03 10:50:20;;;;;;;7.95;7.15;;;23.30;70.20;;;;;;5018751;28;20449;-61
2021/07/03 10:52:46;;;;;;;7.55;6.78;;;23.40;70.50;;;;;;5023097;28;20033;-62
2021/07/03 10:55:12;;;;;;;7.82;7.13;;;23.70;70.40;;;;;;5032426;28;20029;-61
2021/07/03 10:57:42;;;;;;;9.18;7.00;;;23.70;70.00;;;;;;5014868;28;20675;-62
2021/07/03 11:00:10;;;;;;;8.00;7.30;;;23.50;70.00;;;;;;5014667;28;20043;-61
2021/07/03 11:02:36;;;;;;;8.57;7.75;;;23.60;70.20;;;;;;5032791;28;20013;-60
2021/07/03 11:05:13;;;;;;;8.40;6.78;;;23.90;70.10;;;;;;5031916;28;20038;-60
2021/07/03 11:07:40;;;;;;;6.97;6.00;;;24.00;68.60;;;;;;5031634;28;20029;-64
2021/07/03 11:10:06;;;;;;;8.50;6.65;;;24.20;68.80;;;;;;5014456;28;20128;-63
2021/07/03 11:12:44;;;;;;;6.93;5.88;;;24.30;68.10;;;;;;5032596;28;20480;-62
2021/07/03 11:15:12;;;;;;;9.23;7.10;;;24.30;66.80;;;;;;5033105;28;20030;-62
2021/07/03 11:17:37;;;;;;;8.07;7.28;;;24.10;68.60;;;;;;5051829;28;20032;-62
2021/07/03 11:20:03;;;;;;;9.20;7.10;;;24.00;68.30;;;;;;5052857;28;20041;-63
2021/07/03 11:22:30;;;;;;;7.82;6.57;;;24.00;68.40;;;;;;5052385;28;20021;-61
2021/07/03 11:24:58;;;;;;;7.78;7.07;;;23.90;68.60;;;;;;5052605;28;20044;-63
2021/07/03 11:27:34;;;;;;;8.73;6.65;;;23.40;69.70;;;;;;5035591;28;20092;-63
2021/07/03 11:30:05;;;;;;;8.20;6.65;;;23.10;70.60;;;;;;5014577;28;20084;-62
2021/07/03 11:32:31;;;;;;;7.82;7.13;;;23.10;70.20;;;;;;5032043;28;20033;-61
2021/07/03 11:35:02;;;;;;;7.97;6.88;;;23.40;69.50;;;;;;5032448;28;20087;-60
2021/07/03 11:37:34;;;;;;;8.52;6.90;;;23.50;69.40;;;;;;5033052;28;20062;-63
2021/07/03 11:40:06;;;;;;;7.97;7.03;;;23.80;69.80;;;;;;5032728;28;20133;-62
2021/07/03 11:42:38;;;;;;;7.13;6.43;;;23.90;69.50;;;;;;5051839;28;20072;-62
2021/07/03 11:45:08;;;;;;;7.50;6.75;;;24.00;68.20;;;;;;5032215;28;20037;-61
2021/07/03 11:47:53;;;;;;;9.27;6.97;;;24.00;67.90;;;;;;5031809;28;20493;-62
2021/07/03 11:50:22;;;;;;;8.82;6.90;;;24.00;67.40;;;;;;5030470;28;20030;-61
2021/07/03 11:52:53;;;;;;;6.65;6.05;;;23.90;68.30;;;;;;5032041;28;20029;-61
2021/07/03 11:55:33;;;;;;;8.25;6.65;;;23.70;68.70;;;;;;5032617;28;20481;-63
2021/07/03 11:58:00;;;;;;;7.22;6.53;;;23.90;68.10;;;;;;5014332;28;20043;-62
2021/07/03 12:00:28;;;;;;;7.22;6.20;;;24.00;68.20;;;;;;5031889;28;20033;-62
2021/07/03 12:02:57;;;;;;;7.20;6.47;;;24.10;68.20;;;;;;5014605;28;20083;-61
2021/07/03 12:05:30;;;;;;;7.93;6.00;;;24.10;67.60;;;;;;5031700;28;20125;-63
2021/07/03 12:08:04;;;;;;;6.07;5.40;;;24.00;68.10;;;;;;5031126;28;20037;-62
2021/07/03 12:10:36;;;;;;;;;;;24.10;68.50;;;;;;5031842;28;20041;-62
2021/07/03 12:13:04;;;;;;;6.80;5.90;;;23.80;67.60;;;;;;5031882;28;19912;-63
2021/07/03 12:15:30;;;;;;;6.85;6.15;;;23.80;67.90;;;;;;5031976;28;20034;-62
2021/07/03 12:17:57;;;;;;;6.68;5.97;;;24.00;67.50;;;;;;5032100;28;20050;-61
2021/07/03 12:20:23;;;;;;;6.82;6.13;;;24.20;67.40;;;;;;5018413;28;20030;-61
2021/07/03 12:22:59;;;;;;;7.18;5.85;;;24.30;67.20;;;;;;5035270;28;20037;-63
2021/07/03 12:25:25;;;;;;;11.90;8.23;;;24.30;68.00;;;;;;5034445;28;20026;-62
2021/07/03 12:28:04;;;;;;;6.65;5.63;;;24.60;67.50;;;;;;5034749;28;20477;-61
2021/07/03 12:30:31;;;;;;;7.65;5.72;;;25.00;65.80;;;;;;5034815;28;20026;-62
2021/07/03 12:33:06;;;;;;;6.40;5.80;;;25.30;65.30;;;;;;5034827;28;20547;-62